Time;durP1;ratioP1;P1;durP2;ratioP2;P2;SDS_P1;SDS_P2;PMS_P1;PMS_P2;Temp;Humidity;BMP_temperature;BMP_pressure;BME280_temperature;BME280_humidity;BME280_pressure;Samples;Min_cycle;Max_cycle;Signal;HPM_P1;HPM_P2
2022/06/01 00:00:10;;;;;;;3.42;2.30;;;;;;;;;;1710296;84;21041;-73
2022/06/01 00:02:37;;;;;;;3.05;2.40;;;;;;;;;;1716663;82;21069;-73
2022/06/01 00:05:05;;;;;;;2.72;2.02;;;;;;;;;;1739170;82;21136;-73
2022/06/01 00:07:32;;;;;;;2.72;2.22;;;;;;;;;;1739663;82;20997;-73
2022/06/01 00:09:58;;;;;;;3.47;2.50;;;;;;;;;;1739648;82;21045;-73
2022/06/01 00:12:23;;;;;;;2.80;2.50;;;;;;;;;;1739439;82;21049;-73
2022/06/01 00:14:51;;;;;;;2.67;2.08;;;;;;;;;;1739219;82;21041;-73
2022/06/01 00:17:20;;;;;;;2.85;2.08;;;;;;;;;;1739604;82;21005;-73
2022/06/01 00:19:45;;;;;;;2.90;2.17;;;;;;;;;;1737434;81;21120;-74
2022/06/01 00:22:11;;;;;;;2.60;2.20;;;;;;;;;;1737534;82;20998;-74
2022/06/01 00:24:40;;;;;;;2.75;2.10;;;;;;;;;;1739675;82;21053;-74
2022/06/01 00:27:08;;;;;;;2.80;1.95;;;;;;;;;;1747528;82;21080;-73
2022/06/01 00:29:35;;;;;;;3.27;2.40;;;;;;;;;;1753506;81;21623;-74
2022/06/01 00:32:01;;;;;;;3.08;2.25;;;;;;;;;;1732911;82;21071;-73
2022/06/01 00:34:27;;;;;;;2.00;1.80;;;;;;;;;;1752372;82;21056;-73
2022/06/01 00:36:53;;;;;;;2.35;2.10;;;;;;;;;;1753834;81;20985;-73
2022/06/01 00:41:29;;;;;;;3.62;2.30;;;;;;;;;;1819641;79;22924;-73
2022/06/01 00:43:57;;;;;;;3.17;2.25;;;;;;;;;;1792899;80;21055;-73
2022/06/01 00:46:23;;;;;;;3.10;2.50;;;;;;;;;;1779715;80;21004;-74
2022/06/01 00:48:50;;;;;;;4.17;2.98;;;;;;;;;;1755958;82;21543;-74
2022/06/01 00:51:18;;;;;;;4.42;3.47;;;;;;;;;;1758455;80;21064;-73
2022/06/01 00:53:44;;;;;;;3.60;2.90;;;;;;;;;;1755985;82;21013;-75
2022/06/01 00:56:15;;;;;;;4.03;2.90;;;;;;;;;;1755742;82;21071;-74
2022/06/01 00:58:42;;;;;;;4.33;2.60;;;;;;;;;;1755797;82;21032;-74
2022/06/01 01:03:58;;;;;;;3.02;2.27;;;;;;;;;;1717097;79;21140;-73
2022/06/01 01:06:29;;;;;;;5.35;2.62;;;;;;;;;;1722177;82;20986;-73
2022/06/01 01:08:55;;;;;;;2.80;2.40;;;;;;;;;;1749222;82;21100;-73
2022/06/01 01:11:24;;;;;;;3.05;2.50;;;;;;;;;;1750885;81;21524;-74
2022/06/01 01:13:50;;;;;;;2.25;2.00;;;;;;;;;;1763308;81;21016;-73
2022/06/01 01:16:18;;;;;;;2.40;2.15;;;;;;;;;;1744671;81;21048;-74
2022/06/01 01:18:45;;;;;;;2.72;2.20;;;;;;;;;;1736402;83;21024;-73
2022/06/01 01:21:16;;;;;;;5.65;2.60;;;;;;;;;;1748164;81;21056;-73
2022/06/01 01:23:50;;;;;;;3.27;2.40;;;;;;;;;;1766585;81;21122;-73
2022/06/01 01:26:17;;;;;;;3.50;2.60;;;;;;;;;;1766798;81;21009;-73
2022/06/01 01:28:43;;;;;;;3.58;2.80;;;;;;;;;;1766972;81;21024;-73
2022/06/01 01:31:12;;;;;;;2.87;2.27;;;;;;;;;;1766931;81;21002;-73
2022/06/01 01:33:40;;;;;;;3.70;2.50;;;;;;;;;;1766882;81;21065;-73
2022/06/01 01:36:07;;;;;;;3.17;2.70;;;;;;;;;;1767105;81;21492;-73
2022/06/01 01:38:41;;;;;;;3.10;2.30;;;;;;;;;;1766812;81;21549;-72
2022/06/01 01:41:11;;;;;;;3.92;2.40;;;;;;;;;;1754022;81;21076;-73
2022/06/01 01:43:43;;;;;;;3.02;2.42;;;;;;;;;;1736058;83;21013;-74
2022/06/01 01:46:09;;;;;;;3.02;2.52;;;;;;;;;;1736381;83;22080;-74
2022/06/01 01:48:36;;;;;;;3.20;2.47;;;;;;;;;;1735938;83;21036;-74
2022/06/01 01:51:02;;;;;;;3.42;2.47;;;;;;;;;;1745852;81;21043;-73
2022/06/01 01:53:32;;;;;;;2.98;2.25;;;;;;;;;;1766050;81;21005;-74
2022/06/01 01:56:16;;;;;;;2.92;2.40;;;;;;;;;;1765920;81;21064;-73
2022/06/01 01:58:50;;;;;;;2.85;2.15;;;;;;;;;;1766348;81;21041;-74
2022/06/01 02:01:20;;;;;;;2.65;2.20;;;;;;;;;;1725027;81;21631;-74
2022/06/01 02:03:49;;;;;;;3.15;2.00;;;;;;;;;;1754509;81;21695;-72
2022/06/01 02:06:24;;;;;;;2.77;2.30;;;;;;;;;;1738955;82;21045;-74
2022/06/01 02:08:54;;;;;;;2.67;2.20;;;;;;;;;;1738801;82;21132;-74
2022/06/01 02:14:24;;;;;;;3.08;2.30;;;;;;;;;;1732852;83;21067;-73
2022/06/01 02:16:56;;;;;;;2.77;2.15;;;;;;;;;;1732729;83;21049;-73
2022/06/01 02:19:23;;;;;;;2.95;2.12;;;;;;;;;;1715433;83;21088;-72
2022/06/01 02:21:50;;;;;;;2.65;2.12;;;;;;;;;;1725258;83;21594;-73
2022/06/01 02:24:17;;;;;;;2.77;2.22;;;;;;;;;;1732417;83;21029;-73
2022/06/01 02:26:43;;;;;;;3.65;2.00;;;;;;;;;;1732894;83;21523;-73
2022/06/01 02:29:11;;;;;;;2.58;2.15;;;;;;;;;;1718786;83;21036;-72
2022/06/01 02:31:37;;;;;;;3.00;2.10;;;;;;;;;;1703606;84;21123;-73
2022/06/01 02:34:04;;;;;;;2.58;2.10;;;;;;;;;;1703694;84;21547;-73
2022/06/01 02:36:30;;;;;;;4.42;2.17;;;;;;;;;;1703657;84;21045;-73
2022/06/01 02:38:56;;;;;;;3.20;2.00;;;;;;;;;;1710106;83;20977;-73
2022/06/01 02:44:08;;;;;;;2.25;1.95;;;;;;;;;;1706782;84;21076;-72
2022/06/01 02:46:34;;;;;;;4.28;2.30;;;;;;;;;;1706723;84;21109;-72
2022/06/01 02:49:03;;;;;;;3.10;2.20;;;;;;;;;;1711787;83;21040;-72
2022/06/01 02:51:29;;;;;;;2.58;2.00;;;;;;;;;;1732958;83;20989;-72
2022/06/01 02:53:55;;;;;;;2.47;1.95;;;;;;;;;;1706551;83;21492;-73
2022/06/01 02:56:22;;;;;;;2.60;2.10;;;;;;;;;;1703800;84;21108;-73
2022/06/01 02:58:49;;;;;;;2.47;1.95;;;;;;;;;;1705812;83;21080;-73
2022/06/01 03:01:15;;;;;;;2.80;2.20;;;;;;;;;;1733012;83;21096;-73
2022/06/01 03:03:41;;;;;;;2.83;2.00;;;;;;;;;;1731607;81;21100;-72
2022/06/01 03:06:08;;;;;;;2.47;2.00;;;;;;;;;;1724113;83;21016;-73
2022/06/01 03:08:34;;;;;;;3.05;2.12;;;;;;;;;;1724676;83;21575;-73
2022/06/01 03:11:01;;;;;;;2.42;1.90;;;;;;;;;;1729305;83;21080;-73
2022/06/01 03:13:27;;;;;;;3.45;2.25;;;;;;;;;;1729609;83;21043;-73
2022/06/01 03:15:53;;;;;;;2.35;2.02;;;;;;;;;;1728735;83;21080;-73
2022/06/01 03:18:20;;;;;;;2.80;2.22;;;;;;;;;;1723293;83;21092;-73
2022/06/01 03:20:46;;;;;;;4.25;2.52;;;;;;;;;;1723581;83;20985;-73
2022/06/01 03:23:12;;;;;;;3.15;2.40;;;;;;;;;;1724389;83;21072;-73
2022/06/01 03:25:38;;;;;;;2.20;2.00;;;;;;;;;;1724107;83;21036;-73
2022/06/01 03:28:05;;;;;;;2.55;2.20;;;;;;;;;;1722875;83;21476;-73
2022/06/01 03:30:31;;;;;;;2.80;2.20;;;;;;;;;;1722323;83;21700;-73
2022/06/01 03:32:57;;;;;;;2.55;2.12;;;;;;;;;;1722757;83;21036;-73
2022/06/01 03:35:25;;;;;;;5.12;2.35;;;;;;;;;;1722060;83;21076;-73
2022/06/01 03:37:51;;;;;;;2.00;1.80;;;;;;;;;;1724049;83;21084;-73
2022/06/01 03:40:18;;;;;;;2.98;2.02;;;;;;;;;;1724324;83;21048;-73
2022/06/01 03:42:44;;;;;;;2.60;2.10;;;;;;;;;;1724268;83;21056;-73
2022/06/01 03:47:55;;;;;;;2.72;2.33;;;;;;;;;;1724299;83;21492;-73
2022/06/01 03:50:23;;;;;;;3.75;2.10;;;;;;;;;;1723953;83;21068;-73
2022/06/01 03:52:52;;;;;;;3.42;2.20;;;;;;;;;;1723244;83;21100;-73
2022/06/01 03:55:18;;;;;;;3.58;2.17;;;;;;;;;;1724314;83;21087;-72
2022/06/01 03:57:44;;;;;;;2.95;2.05;;;;;;;;;;1724022;83;21021;-73
2022/06/01 04:00:11;;;;;;;3.55;2.35;;;;;;;;;;1724128;83;21785;-72
2022/06/01 04:02:38;;;;;;;2.47;2.20;;;;;;;;;;1724390;83;21605;-72
2022/06/01 04:05:04;;;;;;;3.20;2.20;;;;;;;;;;1731425;82;21067;-73
2022/06/01 04:07:30;;;;;;;3.27;2.30;;;;;;;;;;1736547;83;21052;-72
2022/06/01 04:09:56;;;;;;;2.60;2.40;;;;;;;;;;1736783;82;21020;-72
2022/06/01 04:12:22;;;;;;;3.27;2.20;;;;;;;;;;1737014;82;21088;-72
2022/06/01 04:14:50;;;;;;;4.05;2.52;;;;;;;;;;1736495;83;21571;-72
2022/06/01 04:17:16;;;;;;;3.87;2.37;;;;;;;;;;1726911;82;21080;-72
2022/06/01 04:19:42;;;;;;;2.80;2.20;;;;;;;;;;1722467;83;21377;-72
2022/06/01 04:22:09;;;;;;;2.75;2.45;;;;;;;;;;1723206;83;21025;-72
2022/06/01 04:24:35;;;;;;;3.35;2.65;;;;;;;;;;1722519;83;21036;-72
2022/06/01 04:27:01;;;;;;;3.80;2.60;;;;;;;;;;1722478;83;21556;-72
2022/06/01 04:29:27;;;;;;;3.52;2.25;;;;;;;;;;1729684;82;21021;-72
2022/06/01 04:31:56;;;;;;;3.02;2.52;;;;;;;;;;1734828;81;21044;-72
2022/06/01 04:34:21;;;;;;;3.33;2.35;;;;;;;;;;1722379;83;21068;-72
2022/06/01 04:36:47;;;;;;;3.42;2.65;;;;;;;;;;1732529;82;21083;-72
2022/06/01 04:39:15;;;;;;;2.60;2.20;;;;;;;;;;1737751;82;21012;-72
2022/06/01 04:41:42;;;;;;;4.20;2.65;;;;;;;;;;1739558;82;21032;-72
2022/06/01 04:44:08;;;;;;;2.95;2.50;;;;;;;;;;1739203;82;21016;-73
2022/06/01 04:46:33;;;;;;;3.37;2.50;;;;;;;;;;1739897;82;21051;-73
2022/06/01 04:48:59;;;;;;;2.83;2.30;;;;;;;;;;1739722;82;20984;-73
2022/06/01 04:51:26;;;;;;;3.05;2.20;;;;;;;;;;1726121;82;21046;-74
2022/06/01 04:53:52;;;;;;;3.25;2.40;;;;;;;;;;1733316;82;21016;-72
2022/06/01 04:56:18;;;;;;;4.12;2.87;;;;;;;;;;1730841;82;21015;-72
2022/06/01 04:58:44;;;;;;;4.03;2.70;;;;;;;;;;1712468;82;21080;-72
2022/06/01 05:01:10;;;;;;;3.47;2.50;;;;;;;;;;1739670;82;21649;-73
2022/06/01 05:03:36;;;;;;;4.45;2.80;;;;;;;;;;1739391;82;21079;-73
2022/06/01 05:06:03;;;;;;;3.50;2.58;;;;;;;;;;1732906;83;21083;-72
2022/06/01 05:08:30;;;;;;;3.47;2.65;;;;;;;;;;1731722;83;21549;-73
2022/06/01 05:10:56;;;;;;;3.77;2.62;;;;;;;;;;1727518;82;21503;-73
2022/06/01 05:13:23;;;;;;;2.55;2.35;;;;;;;;;;1726076;83;21111;-73
2022/06/01 05:15:51;;;;;;;3.50;2.47;;;;;;;;;;1711205;83;21052;-71
2022/06/01 05:18:18;;;;;;;4.33;2.47;;;;;;;;;;1718834;81;21126;-71
2022/06/01 05:20:44;;;;;;;3.65;2.50;;;;;;;;;;1709124;83;21016;-72
2022/06/01 05:23:13;;;;;;;4.37;2.70;;;;;;;;;;1703406;84;21076;-72
2022/06/01 05:25:39;;;;;;;5.03;2.50;;;;;;;;;;1703194;84;21037;-72
2022/06/01 05:28:05;;;;;;;3.72;2.65;;;;;;;;;;1705560;83;20997;-73
2022/06/01 05:30:31;;;;;;;3.52;2.65;;;;;;;;;;1707417;83;21020;-73
2022/06/01 05:32:57;;;;;;;5.28;2.87;;;;;;;;;;1732449;83;21427;-73
2022/06/01 05:35:24;;;;;;;4.12;2.90;;;;;;;;;;1732739;83;21080;-73
2022/06/01 05:37:51;;;;;;;4.55;2.50;;;;;;;;;;1732824;83;21041;-72
2022/06/01 05:40:17;;;;;;;2.95;2.67;;;;;;;;;;1732942;83;21036;-72
2022/06/01 05:42:43;;;;;;;5.45;2.55;;;;;;;;;;1733046;83;21095;-73
2022/06/01 05:45:09;;;;;;;3.90;2.50;;;;;;;;;;1733067;83;21013;-73
2022/06/01 05:47:36;;;;;;;3.25;2.60;;;;;;;;;;1710362;83;21032;-73
2022/06/01 05:50:03;;;;;;;5.05;2.67;;;;;;;;;;1733554;82;21028;-72
2022/06/01 05:52:29;;;;;;;4.33;2.62;;;;;;;;;;1724038;83;21000;-73
2022/06/01 05:54:55;;;;;;;3.52;2.87;;;;;;;;;;1728401;83;21017;-73
2022/06/01 05:57:21;;;;;;;3.98;2.77;;;;;;;;;;1716324;83;21060;-73
2022/06/01 05:59:48;;;;;;;4.17;3.00;;;;;;;;;;1726610;83;21558;-72
2022/06/01 06:02:14;;;;;;;4.90;3.02;;;;;;;;;;1731209;83;21051;-74
2022/06/01 06:04:40;;;;;;;4.25;2.98;;;;;;;;;;1736017;81;21111;-73
2022/06/01 06:07:06;;;;;;;4.42;3.30;;;;;;;;;;1736913;82;21504;-72
2022/06/01 06:09:34;;;;;;;4.60;3.15;;;;;;;;;;1691536;85;21094;-72
2022/06/01 06:12:00;;;;;;;4.00;2.90;;;;;;;;;;1693514;84;21058;-72
2022/06/01 06:14:26;;;;;;;6.00;3.17;;;;;;;;;;1708277;84;21060;-72
2022/06/01 06:16:52;;;;;;;12.98;4.10;;;;;;;;;;1707989;84;21127;-73
2022/06/01 06:19:20;;;;;;;5.72;3.52;;;;;;;;;;1707720;84;21039;-73
2022/06/01 06:21:47;;;;;;;5.85;3.33;;;;;;;;;;1702568;84;20985;-72
2022/06/01 06:24:15;;;;;;;5.62;3.75;;;;;;;;;;1708230;84;21029;-74
2022/06/01 06:26:45;;;;;;;3.62;3.25;;;;;;;;;;1707914;84;21075;-73
2022/06/01 06:29:13;;;;;;;4.55;3.12;;;;;;;;;;1703856;84;21523;-72
2022/06/01 06:31:39;;;;;;;4.42;3.30;;;;;;;;;;1699140;84;20988;-72
2022/06/01 06:34:05;;;;;;;4.83;3.15;;;;;;;;;;1699156;84;21561;-75
2022/06/01 06:36:31;;;;;;;3.60;3.20;;;;;;;;;;1699135;84;21623;-73
2022/06/01 06:38:57;;;;;;;4.25;3.20;;;;;;;;;;1715364;82;21031;-73
2022/06/01 06:41:24;;;;;;;5.35;3.37;;;;;;;;;;1712307;82;21017;-72
2022/06/01 06:43:52;;;;;;;5.03;3.90;;;;;;;;;;1706931;82;21539;-74
2022/06/01 06:46:18;;;;;;;4.83;3.55;;;;;;;;;;1676643;85;21037;-73
2022/06/01 06:48:45;;;;;;;5.40;3.47;;;;;;;;;;1714883;82;21012;-73
2022/06/01 06:51:12;;;;;;;5.53;3.20;;;;;;;;;;1708081;82;21079;-73
2022/06/01 06:53:38;;;;;;;5.17;3.67;;;;;;;;;;1716743;82;21028;-72
2022/06/01 06:56:06;;;;;;;4.95;3.65;;;;;;;;;;1676722;85;21536;-73
2022/06/01 06:58:33;;;;;;;4.85;3.50;;;;;;;;;;1730457;82;21065;-73
2022/06/01 07:00:59;;;;;;;4.83;3.25;;;;;;;;;;1717498;82;21005;-73
2022/06/01 07:03:25;;;;;;;4.80;3.67;;;;;;;;;;1721892;81;21057;-74
2022/06/01 07:06:11;;;;;;;3.70;3.30;;;;;;;;;;1725789;82;21618;-74
2022/06/01 07:08:39;;;;;;;4.67;3.17;;;;;;;;;;1723348;82;21025;-73
2022/06/01 07:11:07;;;;;;;4.55;3.22;;;;;;;;;;1711429;82;21076;-73
2022/06/01 07:13:33;;;;;;;4.58;3.30;;;;;;;;;;1727904;82;21094;-72
2022/06/01 07:16:08;;;;;;;7.83;3.45;;;;;;;;;;1718472;83;21030;-73
2022/06/01 07:18:35;;;;;;;4.72;3.47;;;;;;;;;;1709749;84;21591;-72
2022/06/01 07:21:01;;;;;;;5.40;3.40;;;;;;;;;;1709658;84;21576;-73
2022/06/01 07:23:27;;;;;;;4.15;3.50;;;;;;;;;;1708896;84;21001;-73
2022/06/01 07:25:54;;;;;;;5.58;3.45;;;;;;;;;;1707983;84;21072;-73
2022/06/01 07:28:22;;;;;;;4.50;3.50;;;;;;;;;;1708307;84;21191;-74
2022/06/01 07:30:56;;;;;;;4.28;3.12;;;;;;;;;;1708202;84;21096;-73
2022/06/01 07:33:19;;;;;;;4.97;3.62;;;;;;;;;;1708345;83;21500;-73
2022/06/01 07:35:46;;;;;;;5.33;3.75;;;;;;;;;;1709071;84;21172;-74
2022/06/01 07:43:42;;;;;;;4.53;3.00;;;;;;;;;;1725122;82;21052;-74
2022/06/01 07:46:08;;;;;;;4.70;3.67;;;;;;;;;;1706524;82;21450;-74
2022/06/01 07:48:35;;;;;;;5.55;3.20;;;;;;;;;;1716495;82;21064;-72
2022/06/01 07:51:01;;;;;;;5.10;3.30;;;;;;;;;;1710739;82;21044;-74
2022/06/01 07:53:27;;;;;;;4.60;3.22;;;;;;;;;;1732768;82;21607;-71
2022/06/01 07:55:54;;;;;;;4.37;3.55;;;;;;;;;;1709564;83;21623;-72
2022/06/01 07:58:20;;;;;;;4.35;3.80;;;;;;;;;;1709586;84;21095;-72
2022/06/01 08:00:47;;;;;;;4.05;3.60;;;;;;;;;;1711739;82;21662;-72
2022/06/01 08:03:13;;;;;;;5.00;3.80;;;;;;;;;;1706512;83;21154;-72
2022/06/01 08:05:39;;;;;;;4.85;4.40;;;;;;;;;;1718198;82;21004;-72
2022/06/01 08:08:05;;;;;;;5.30;4.12;;;;;;;;;;1735682;82;22203;-72
2022/06/01 08:10:33;;;;;;;5.15;3.90;;;;;;;;;;1722000;83;21584;-72
2022/06/01 08:13:07;;;;;;;5.22;3.85;;;;;;;;;;1722125;83;21066;-73
2022/06/01 08:15:37;;;;;;;5.97;4.20;;;;;;;;;;1722649;83;21698;-72
2022/06/01 08:18:03;;;;;;;7.85;4.58;;;;;;;;;;1722463;83;21072;-73
2022/06/01 08:20:30;;;;;;;7.17;4.22;;;;;;;;;;1735620;82;21051;-72
2022/06/01 08:22:57;;;;;;;5.37;4.15;;;;;;;;;;1737277;82;21570;-72
2022/06/01 08:25:23;;;;;;;5.08;4.05;;;;;;;;;;1736675;82;21072;-72
2022/06/01 08:27:49;;;;;;;5.50;4.20;;;;;;;;;;1735531;82;21009;-72
2022/06/01 08:30:16;;;;;;;6.20;4.78;;;;;;;;;;1733195;82;22052;-72
2022/06/01 08:32:42;;;;;;;5.92;4.70;;;;;;;;;;1722405;83;21045;-71
2022/06/01 08:35:09;;;;;;;5.70;4.00;;;;;;;;;;1725773;82;21028;-72
2022/06/01 08:37:37;;;;;;;5.70;4.30;;;;;;;;;;1722680;82;21588;-71
2022/06/01 08:40:04;;;;;;;6.53;4.67;;;;;;;;;;1734715;83;21067;-72
2022/06/01 08:42:30;;;;;;;5.85;4.35;;;;;;;;;;1733545;82;21047;-71
2022/06/01 08:44:58;;;;;;;7.10;4.45;;;;;;;;;;1723854;83;21057;-72
2022/06/01 08:47:26;;;;;;;6.62;4.65;;;;;;;;;;1738000;82;21039;-72
2022/06/01 08:49:53;;;;;;;6.03;4.08;;;;;;;;;;1735784;82;21025;-72
2022/06/01 08:52:19;;;;;;;7.08;4.55;;;;;;;;;;1725368;82;21060;-72
2022/06/01 08:54:46;;;;;;;6.28;4.12;;;;;;;;;;1739155;82;21024;-72
2022/06/01 08:57:15;;;;;;;7.00;4.80;;;;;;;;;;1729491;82;21068;-72
2022/06/01 08:59:53;;;;;;;9.10;4.37;;;;;;;;;;1737198;82;21063;-72
2022/06/01 09:02:20;;;;;;;5.17;4.30;;;;;;;;;;1735591;82;21104;-72
2022/06/01 09:04:52;;;;;;;5.75;4.53;;;;;;;;;;1736682;82;21072;-72
2022/06/01 09:07:33;;;;;;;5.20;4.15;;;;;;;;;;1667127;83;21032;-72
2022/06/01 09:10:18;;;;;;;6.78;4.67;;;;;;;;;;1717444;83;21016;-72
2022/06/01 09:12:45;;;;;;;6.92;4.87;;;;;;;;;;1707011;84;21092;-74
2022/06/01 09:15:25;;;;;;;6.10;4.53;;;;;;;;;;1715487;83;20961;-72
2022/06/01 09:17:51;;;;;;;8.55;4.33;;;;;;;;;;1734633;83;21153;-72
2022/06/01 09:23:03;;;;;;;5.75;4.15;;;;;;;;;;1732871;83;21028;-70
2022/06/01 09:25:32;;;;;;;6.78;3.92;;;;;;;;;;1728247;83;21559;-73
2022/06/01 09:28:00;;;;;;;7.58;4.70;;;;;;;;;;1703751;84;21132;-73
2022/06/01 09:30:29;;;;;;;5.53;4.20;;;;;;;;;;1685374;84;21069;-73
2022/06/01 09:33:04;;;;;;;5.78;4.75;;;;;;;;;;1703469;84;21076;-73
2022/06/01 09:35:38;;;;;;;6.92;4.53;;;;;;;;;;1705494;83;21068;-73
2022/06/01 09:38:06;;;;;;;6.65;4.17;;;;;;;;;;1703812;84;21063;-73
2022/06/01 09:40:33;;;;;;;6.75;4.55;;;;;;;;;;1703193;84;21044;-72
2022/06/01 09:43:01;;;;;;;8.15;4.70;;;;;;;;;;1720097;83;21508;-72
2022/06/01 09:45:29;;;;;;;9.10;5.28;;;;;;;;;;1732361;83;21056;-72
2022/06/01 09:48:13;;;;;;;5.50;4.22;;;;;;;;;;1735689;83;21076;-72
2022/06/01 09:50:40;;;;;;;7.60;4.58;;;;;;;;;;1734982;83;21032;-72
2022/06/01 09:53:19;;;;;;;10.30;5.03;;;;;;;;;;1724045;81;21053;-72
2022/06/01 09:55:57;;;;;;;7.15;4.30;;;;;;;;;;1734563;83;21064;-72
2022/06/01 10:06:50;;;;;;;4.45;3.98;;;;;;;;;;1730548;82;21052;-72
2022/06/01 10:09:18;;;;;;;6.67;4.17;;;;;;;;;;1732490;83;21551;-73
2022/06/01 10:11:46;;;;;;;4.90;3.55;;;;;;;;;;1735094;83;21000;-72
2022/06/01 10:14:24;;;;;;;6.22;4.10;;;;;;;;;;1736278;82;21508;-71
2022/06/01 10:17:01;;;;;;;5.53;3.58;;;;;;;;;;1739444;82;21054;-72
2022/06/01 10:19:28;;;;;;;5.05;4.10;;;;;;;;;;1739785;82;21004;-73
2022/06/01 10:22:00;;;;;;;5.47;3.98;;;;;;;;;;1738905;82;21100;-73
2022/06/01 10:24:30;;;;;;;8.35;4.10;;;;;;;;;;1712329;82;21008;-72
2022/06/01 10:26:58;;;;;;;5.60;3.80;;;;;;;;;;1739056;82;21015;-72
2022/06/01 10:29:25;;;;;;;6.78;4.00;;;;;;;;;;1739366;82;21107;-72
2022/06/01 10:32:03;;;;;;;5.28;3.87;;;;;;;;;;1739269;82;21031;-74
2022/06/01 10:34:41;;;;;;;7.65;4.03;;;;;;;;;;1718504;82;21077;-74
2022/06/01 10:37:25;;;;;;;4.60;3.35;;;;;;;;;;1703698;84;21003;-74
2022/06/01 10:39:52;;;;;;;7.70;4.00;;;;;;;;;;1703601;84;21093;-74
2022/06/01 10:42:22;;;;;;;7.75;4.12;;;;;;;;;;1703494;84;21050;-72
2022/06/01 10:45:04;;;;;;;6.67;4.10;;;;;;;;;;1702768;84;22144;-73
2022/06/01 10:47:49;;;;;;;6.08;4.08;;;;;;;;;;1707902;83;21104;-74
2022/06/01 10:50:17;;;;;;;5.80;3.62;;;;;;;;;;1735780;83;21036;-73
2022/06/01 10:52:45;;;;;;;7.80;4.00;;;;;;;;;;1735448;83;21075;-73
2022/06/01 10:55:31;;;;;;;4.72;3.75;;;;;;;;;;1735724;83;21504;-73
2022/06/01 10:57:58;;;;;;;4.60;3.45;;;;;;;;;;1734839;83;21131;-74
2022/06/01 11:00:38;;;;;;;4.95;3.58;;;;;;;;;;1735853;83;21139;-73
2022/06/01 11:03:12;;;;;;;4.10;3.27;;;;;;;;;;1735607;81;21060;-74
2022/06/01 11:05:45;;;;;;;5.72;3.65;;;;;;;;;;1720911;83;21571;-73
2022/06/01 11:08:25;;;;;;;5.42;3.47;;;;;;;;;;1738351;82;21104;-73
2022/06/01 11:10:54;;;;;;;6.67;4.20;;;;;;;;;;1738309;82;21107;-73
2022/06/01 11:13:39;;;;;;;7.25;4.03;;;;;;;;;;1729152;82;21048;-72
2022/06/01 11:16:26;;;;;;;6.37;3.47;;;;;;;;;;1738266;82;21071;-72
2022/06/01 11:18:54;;;;;;;6.92;4.17;;;;;;;;;;1737909;82;21059;-72
2022/06/01 11:21:31;;;;;;;6.28;3.42;;;;;;;;;;1737667;82;21515;-72
2022/06/01 11:24:11;;;;;;;4.53;3.47;;;;;;;;;;1737850;82;21100;-72
2022/06/01 11:26:39;;;;;;;4.37;3.17;;;;;;;;;;1738318;82;21028;-73
2022/06/01 11:29:26;;;;;;;5.65;4.10;;;;;;;;;;1724589;82;21109;-72
2022/06/01 11:31:53;;;;;;;4.10;3.58;;;;;;;;;;1708163;84;21030;-72
2022/06/01 11:34:22;;;;;;;4.37;3.47;;;;;;;;;;1708246;84;21066;-72
2022/06/01 11:37:02;;;;;;;6.22;3.37;;;;;;;;;;1649189;87;21616;-72
2022/06/01 11:39:33;;;;;;;7.62;3.83;;;;;;;;;;1648044;87;21052;-73
2022/06/01 11:42:03;;;;;;;4.47;3.67;;;;;;;;;;1646043;87;21024;-73
2022/06/01 11:44:38;;;;;;;5.83;3.58;;;;;;;;;;1670639;86;21573;-72
2022/06/01 11:47:12;;;;;;;5.50;3.25;;;;;;;;;;1708331;84;21686;-73
2022/06/01 11:49:39;;;;;;;4.60;3.37;;;;;;;;;;1649201;87;21611;-73
2022/06/01 11:52:13;;;;;;;5.25;3.33;;;;;;;;;;1649539;87;21093;-74
2022/06/01 11:54:39;;;;;;;5.08;3.50;;;;;;;;;;1631290;87;21053;-73
2022/06/01 11:57:20;;;;;;;4.85;3.47;;;;;;;;;;1649442;87;21057;-74
2022/06/01 11:59:48;;;;;;;5.95;3.42;;;;;;;;;;1650871;85;21108;-74
2022/06/01 12:02:44;;;;;;;5.92;3.17;;;;;;;;;;1649408;85;20996;-73
2022/06/01 12:05:12;;;;;;;7.42;2.92;;;;;;;;;;1676630;84;21080;-73
2022/06/01 12:07:49;;;;;;;4.40;3.33;;;;;;;;;;1699770;84;21101;-73
2022/06/01 12:10:20;;;;;;;6.12;3.67;;;;;;;;;;1709587;84;21050;-73
2022/06/01 12:12:59;;;;;;;3.72;3.20;;;;;;;;;;1709945;84;21062;-73
2022/06/01 12:15:29;;;;;;;4.80;3.27;;;;;;;;;;1709532;84;21086;-72
2022/06/01 12:17:59;;;;;;;4.80;3.20;;;;;;;;;;1709363;84;21053;-73
2022/06/01 12:20:34;;;;;;;4.33;3.30;;;;;;;;;;1709371;84;21141;-73
2022/06/01 12:28:54;;;;;;;4.37;3.10;;;;;;;;;;1709693;84;20994;-74
2022/06/01 12:31:26;;;;;;;4.25;3.35;;;;;;;;;;1709476;84;21081;-73
2022/06/01 12:34:03;;;;;;;4.83;3.10;;;;;;;;;;1709615;84;21093;-73
2022/06/01 12:36:39;;;;;;;4.97;3.22;;;;;;;;;;1709515;84;21026;-73
2022/06/01 12:39:07;;;;;;;6.97;3.60;;;;;;;;;;1709263;84;21065;-74
2022/06/01 12:41:36;;;;;;;6.15;3.37;;;;;;;;;;1708376;84;21101;-73
2022/06/01 12:44:07;;;;;;;5.15;2.98;;;;;;;;;;1709495;84;21615;-73
2022/06/01 12:46:39;;;;;;;4.60;3.37;;;;;;;;;;1708966;84;21063;-73
2022/06/01 12:49:25;;;;;;;5.67;3.90;;;;;;;;;;1708499;84;21021;-74
2022/06/01 12:51:53;;;;;;;13.38;4.03;;;;;;;;;;1708707;84;21008;-73
2022/06/01 12:54:33;;;;;;;4.70;3.70;;;;;;;;;;1709643;84;21005;-73
2022/06/01 12:58:41;;;;;;;4.95;3.30;;;;;;;;;;1800556;79;23521;-73
2022/06/01 13:01:07;;;;;;;5.20;3.40;;;;;;;;;;1761745;81;21013;-73
2022/06/01 13:03:34;;;;;;;4.87;3.20;;;;;;;;;;1746198;81;21082;-73
2022/06/01 13:06:03;;;;;;;5.80;3.92;;;;;;;;;;1732028;81;21026;-73
2022/06/01 13:08:32;;;;;;;4.40;3.30;;;;;;;;;;1746875;81;21044;-74
2022/06/01 13:11:18;;;;;;;5.08;3.33;;;;;;;;;;1762002;81;21526;-73
2022/06/01 13:13:44;;;;;;;4.10;3.33;;;;;;;;;;1761883;81;21070;-73
2022/06/01 13:16:11;;;;;;;4.17;3.30;;;;;;;;;;1761631;81;21032;-74
2022/06/01 13:18:38;;;;;;;5.78;3.42;;;;;;;;;;1762012;81;21013;-73
2022/06/01 13:21:07;;;;;;;4.22;3.58;;;;;;;;;;1759887;81;21068;-73
2022/06/01 13:23:35;;;;;;;4.65;3.00;;;;;;;;;;1732019;81;21033;-73
2022/06/01 13:26:05;;;;;;;4.55;3.27;;;;;;;;;;1731629;81;21108;-72
2022/06/01 13:28:31;;;;;;;6.12;3.22;;;;;;;;;;1762190;81;21511;-72
2022/06/01 13:30:58;;;;;;;4.62;3.22;;;;;;;;;;1762028;81;21073;-73
2022/06/01 13:33:39;;;;;;;4.40;3.22;;;;;;;;;;1731945;81;20991;-74
2022/06/01 13:36:07;;;;;;;4.00;3.27;;;;;;;;;;1691822;85;21044;-73
2022/06/01 13:38:35;;;;;;;4.53;3.00;;;;;;;;;;1681159;85;21043;-73
2022/06/01 13:41:06;;;;;;;4.87;3.15;;;;;;;;;;1677280;85;21070;-73
2022/06/01 13:43:40;;;;;;;3.60;3.00;;;;;;;;;;1655733;87;21093;-73
2022/06/01 13:46:07;;;;;;;3.50;3.20;;;;;;;;;;1676821;85;21115;-74
2022/06/01 13:48:35;;;;;;;4.47;3.10;;;;;;;;;;1682659;85;21522;-73
2022/06/01 13:51:03;;;;;;;4.30;3.85;;;;;;;;;;1661957;85;21068;-73
2022/06/01 13:53:34;;;;;;;4.92;2.90;;;;;;;;;;1691403;85;21074;-73
2022/06/01 13:56:05;;;;;;;9.90;3.42;;;;;;;;;;1684878;85;21549;-73
2022/06/01 13:58:41;;;;;;;7.28;3.50;;;;;;;;;;1691661;84;21067;-73
2022/06/01 14:01:09;;;;;;;4.50;3.50;;;;;;;;;;1730065;82;20967;-73
2022/06/01 14:03:46;;;;;;;5.50;3.37;;;;;;;;;;1724464;82;21593;-72
2022/06/01 14:06:14;;;;;;;7.87;3.33;;;;;;;;;;1718751;83;21131;-72
2022/06/01 14:08:50;;;;;;;6.28;3.95;;;;;;;;;;1720780;82;21063;-72
2022/06/01 14:11:21;;;;;;;6.75;3.52;;;;;;;;;;1698063;83;21037;-72
2022/06/01 14:13:47;;;;;;;14.07;6.62;;;;;;;;;;1718956;83;21575;-73
2022/06/01 14:16:15;;;;;;;14.90;7.00;;;;;;;;;;1718101;83;21036;-72
2022/06/01 14:18:45;;;;;;;11.30;5.58;;;;;;;;;;1722028;82;20971;-73
2022/06/01 14:21:11;;;;;;;9.55;5.58;;;;;;;;;;1723278;83;21502;-73
2022/06/01 14:23:37;;;;;;;7.12;3.92;;;;;;;;;;1726290;82;20995;-72
2022/06/01 14:28:49;;;;;;;7.50;3.42;;;;;;;;;;1721607;82;21083;-73
2022/06/01 14:31:17;;;;;;;5.08;3.20;;;;;;;;;;1718248;83;21032;-74
2022/06/01 14:33:44;;;;;;;6.33;3.85;;;;;;;;;;1725116;83;21070;-72
2022/06/01 14:36:10;;;;;;;5.85;3.58;;;;;;;;;;1725813;83;21580;-72
2022/06/01 14:38:36;;;;;;;4.42;3.60;;;;;;;;;;1681270;85;21071;-71
2022/06/01 14:41:04;;;;;;;5.65;3.58;;;;;;;;;;1665721;85;21060;-73
2022/06/01 14:43:31;;;;;;;4.08;3.20;;;;;;;;;;1719723;83;21030;-72
2022/06/01 14:45:57;;;;;;;6.80;3.40;;;;;;;;;;1726016;82;21035;-72
2022/06/01 14:48:24;;;;;;;4.55;3.75;;;;;;;;;;1725869;82;21079;-73
2022/06/01 14:50:52;;;;;;;5.85;3.95;;;;;;;;;;1728539;82;21674;-74
2022/06/01 14:53:25;;;;;;;5.83;3.62;;;;;;;;;;1755819;82;21056;-73
2022/06/01 14:55:51;;;;;;;7.10;3.50;;;;;;;;;;1726166;82;21054;-73
2022/06/01 14:58:18;;;;;;;3.60;3.15;;;;;;;;;;1725717;82;21058;-73
2022/06/01 15:00:45;;;;;;;4.67;3.50;;;;;;;;;;1725555;82;21085;-72
2022/06/01 15:03:12;;;;;;;4.47;3.22;;;;;;;;;;1725977;83;21597;-73
2022/06/01 15:05:38;;;;;;;4.85;3.52;;;;;;;;;;1725593;82;21010;-73
2022/06/01 15:08:05;;;;;;;5.00;3.52;;;;;;;;;;1724430;82;21072;-73
2022/06/01 15:10:31;;;;;;;4.33;2.87;;;;;;;;;;1725294;82;20991;-73
2022/06/01 15:12:58;;;;;;;5.70;3.50;;;;;;;;;;1725782;83;21056;-73
2022/06/01 15:15:25;;;;;;;6.55;3.50;;;;;;;;;;1726334;83;21010;-73
2022/06/01 15:17:52;;;;;;;8.50;3.27;;;;;;;;;;1683525;85;21181;-72
2022/06/01 15:20:18;;;;;;;5.55;3.10;;;;;;;;;;1691015;85;21521;-72
2022/06/01 15:22:44;;;;;;;7.30;3.37;;;;;;;;;;1658478;86;21071;-72
2022/06/01 15:25:11;;;;;;;4.53;3.47;;;;;;;;;;1689736;85;21064;-74
2022/06/01 15:27:38;;;;;;;5.12;3.10;;;;;;;;;;1724527;83;21073;-73
2022/06/01 15:41:07;;;;;;;5.42;3.60;;;;;;;;;;1724585;83;20977;-72
2022/06/01 15:43:33;;;;;;;4.60;3.10;;;;;;;;;;1724498;83;21044;-72